images/hfc/images/print_logo.png
Drucken
[Quelle: ADDS]
METAR
EDDW 181620Z 31011KT 9999 FEW041 14/04 Q1025 NOSIG =
TAF
EDDW 181100Z 1812/1912 31012KT 9999 SCT030 TEMPO 1812/1816 31015G25KT BECMG 1816/1818 29007KT =
BCMT / ECET: 04:26 / 18:11 UTC (EDDW 2019-09-18)

printlogo=no